createdAt,value
2023-05-19T00:00:26.106Z,63.58
2023-05-19T00:02:54.478Z,63.12
2023-05-19T00:05:23.405Z,63.50
2023-05-19T00:07:54.903Z,63.59
2023-05-19T00:10:29.152Z,63.55
2023-05-19T00:13:04.484Z,64.57
2023-05-19T00:15:35.855Z,65.02
2023-05-19T00:18:10.567Z,64.44
2023-05-19T00:20:40.564Z,64.66
2023-05-19T00:23:08.965Z,65.15
2023-05-19T00:25:37.015Z,65.17
2023-05-19T00:28:05.494Z,64.39
2023-05-19T00:30:33.753Z,64.42
2023-05-19T00:33:04.297Z,64.41
2023-05-19T00:35:37.148Z,65.95
2023-05-19T00:38:13.435Z,65.01
2023-05-19T00:40:46.772Z,65.81
2023-05-19T00:43:23.264Z,64.98
2023-05-19T00:45:56.611Z,64.27
2023-05-19T00:48:26.078Z,64.11
2023-05-19T00:51:06.270Z,65.69
2023-05-19T00:53:37.564Z,64.43
2023-05-19T00:56:13.613Z,64.59
2023-05-19T00:58:55.292Z,65.29
2023-05-19T01:01:23.716Z,64.59
2023-05-19T01:03:59.365Z,64.36
2023-05-19T01:06:35.623Z,64.16
2023-05-19T01:09:06.996Z,63.46
2023-05-19T01:11:41.359Z,62.73
2023-05-19T01:14:16.178Z,63.35
2023-05-19T01:16:50.552Z,63.00
2023-05-19T01:19:22.513Z,63.52
2023-05-19T01:22:02.324Z,62.44
2023-05-19T01:24:49.484Z,62.63
2023-05-19T01:27:17.935Z,61.99
2023-05-19T01:30:05.601Z,61.47
2023-05-19T01:32:41.742Z,62.32
2023-05-19T01:35:17.386Z,61.95
2023-05-19T01:37:49.929Z,62.34
2023-05-19T01:40:19.372Z,61.49
2023-05-19T01:42:57.883Z,61.86
2023-05-19T01:45:34.402Z,61.82
2023-05-19T01:48:03.627Z,61.15
2023-05-19T01:50:36.893Z,61.53
2023-05-19T01:53:10.810Z,60.83
2023-05-19T01:55:47.500Z,61.01
2023-05-19T01:58:17.952Z,60.69
2023-05-19T02:00:57.706Z,60.58
2023-05-19T02:03:48.654Z,60.87
2023-05-19T02:06:37.655Z,60.74
2023-05-19T02:09:14.923Z,59.97
2023-05-19T02:12:12.447Z,60.28
2023-05-19T02:14:46.263Z,60.38
2023-05-19T02:17:26.198Z,60.04
2023-05-19T02:19:57.095Z,61.07
2023-05-19T02:22:27.533Z,60.25
2023-05-19T02:25:02.812Z,60.86
2023-05-19T02:28:09.277Z,61.47
2023-05-19T02:31:14.342Z,60.63
2023-05-19T02:34:12.466Z,60.93
2023-05-19T02:36:48.157Z,61.49
2023-05-19T02:39:28.580Z,61.32
2023-05-19T02:42:33.343Z,60.47
2023-05-19T02:45:14.565Z,60.79
2023-05-19T02:47:59.110Z,61.14
2023-05-19T02:50:49.749Z,60.83
2023-05-19T02:53:35.566Z,62.03
2023-05-19T02:56:21.286Z,61.45
2023-05-19T02:59:07.908Z,61.37
2023-05-19T03:02:04.678Z,62.37
2023-05-19T03:04:41.873Z,64.26
2023-05-19T03:07:35.519Z,63.87
2023-05-19T03:10:11.803Z,64.07
2023-05-19T03:12:44.795Z,63.91
2023-05-19T03:15:23.810Z,64.16
2023-05-19T03:18:08.547Z,64.56
2023-05-19T03:20:41.677Z,66.16
2023-05-19T03:23:16.617Z,65.01
2023-05-19T03:26:02.384Z,65.62
2023-05-19T03:29:05.938Z,65.96
2023-05-19T03:31:42.956Z,67.25
2023-05-19T03:34:19.457Z,67.13
2023-05-19T03:40:36.687Z,68.79
2023-05-19T03:43:12.582Z,67.99
2023-05-19T03:45:50.251Z,67.22
2023-05-19T03:49:09.350Z,67.71
2023-05-19T03:51:45.527Z,67.73
2023-05-19T03:54:26.490Z,68.19
2023-05-19T03:56:54.817Z,67.98
2023-05-19T03:59:24.003Z,68.07
2023-05-19T04:01:58.243Z,68.10
2023-05-19T04:04:29.675Z,68.51
2023-05-19T04:07:02.964Z,70.61
2023-05-19T04:09:43.038Z,71.29
2023-05-19T04:12:11.112Z,71.07
2023-05-19T04:14:42.102Z,69.94
2023-05-19T04:17:12.572Z,69.73
2023-05-19T04:19:43.612Z,69.66
2023-05-19T04:22:21.138Z,69.48
2023-05-19T04:24:53.284Z,68.18
2023-05-19T04:27:23.619Z,68.73
2023-05-19T04:29:59.507Z,68.09
2023-05-19T04:32:42.561Z,67.28
2023-05-19T04:35:13.930Z,68.01
2023-05-19T04:37:41.669Z,68.83
2023-05-19T04:40:11.362Z,67.62
2023-05-19T04:42:42.917Z,67.80
2023-05-19T04:45:15.128Z,68.08
2023-05-19T04:47:58.202Z,66.60
2023-05-19T04:50:26.390Z,66.97
2023-05-19T04:57:26.047Z,66.69
2023-05-19T05:00:17.588Z,67.12
2023-05-19T05:03:13.692Z,65.94
2023-05-19T05:05:49.478Z,66.94
2023-05-19T05:08:30.380Z,67.56
2023-05-19T05:10:59.894Z,67.21
2023-05-19T05:13:36.884Z,65.82
2023-05-19T05:16:12.388Z,68.22
2023-05-19T05:39:39.083Z,64.92
2023-05-19T05:47:20.915Z,63.25
2023-05-19T05:49:52.173Z,65.00
2023-05-19T05:53:28.180Z,65.62
2023-05-19T05:57:11.860Z,65.00
2023-05-19T06:00:54.417Z,65.76
2023-05-19T06:36:23.356Z,64.43
2023-05-19T06:38:57.698Z,64.83
2023-05-19T06:41:25.822Z,66.11
2023-05-19T06:43:53.300Z,64.52
2023-05-19T06:46:22.704Z,63.12
2023-05-19T06:52:31.468Z,63.43
2023-05-19T06:55:01.410Z,61.46
2023-05-19T06:57:28.913Z,61.73
2023-05-19T06:59:57.022Z,62.10
2023-05-19T07:02:24.813Z,61.05
2023-05-19T07:04:54.134Z,59.79
2023-05-19T07:07:26.824Z,59.79
2023-05-19T07:09:56.398Z,60.50
2023-05-19T07:12:24.838Z,60.00
2023-05-19T07:14:52.973Z,57.49
2023-05-19T07:17:20.808Z,58.44
2023-05-19T07:19:50.269Z,59.72
2023-05-19T07:22:17.683Z,60.40
2023-05-19T07:24:45.258Z,58.12
2023-05-19T07:27:12.625Z,58.33
2023-05-19T07:29:40.236Z,57.96
2023-05-19T07:32:07.719Z,58.35
2023-05-19T07:34:35.125Z,61.30
2023-05-19T07:37:03.517Z,61.86
2023-05-19T07:39:32.490Z,59.74
2023-05-19T07:41:59.996Z,58.88
2023-05-19T07:44:27.430Z,57.79
2023-05-19T07:46:54.912Z,58.64
2023-05-19T07:49:22.331Z,58.60
2023-05-19T07:51:49.964Z,59.18
2023-05-19T07:54:17.489Z,57.33
2023-05-19T07:56:44.900Z,55.75
2023-05-19T07:59:12.442Z,58.14
2023-05-19T08:01:39.917Z,57.65
2023-05-19T08:04:09.724Z,56.84
2023-05-19T08:06:40.281Z,55.98
2023-05-19T08:09:07.663Z,56.24
2023-05-19T08:11:35.145Z,56.90
2023-05-19T08:14:02.785Z,56.17
2023-05-19T08:16:30.222Z,55.15
2023-05-19T08:18:57.932Z,56.86
2023-05-19T08:21:25.375Z,57.84
2023-05-19T08:23:52.795Z,57.87
2023-05-19T08:26:20.196Z,58.48
2023-05-19T08:28:47.678Z,58.44
2023-05-19T08:31:15.117Z,57.02
2023-05-19T08:33:42.576Z,57.01
2023-05-19T08:36:10.201Z,56.05
2023-05-19T08:38:37.768Z,55.97
2023-05-19T08:41:06.334Z,55.42
2023-05-19T08:43:37.376Z,57.34
2023-05-19T08:46:13.795Z,55.19
2023-05-19T08:48:42.973Z,54.53
2023-05-19T08:51:25.444Z,54.90
2023-05-19T08:53:53.914Z,56.00
2023-05-19T08:56:22.188Z,55.04
2023-05-19T08:58:50.371Z,55.32
2023-05-19T09:01:42.330Z,54.88
2023-05-19T09:04:10.201Z,55.44
2023-05-19T09:06:41.279Z,55.19
2023-05-19T09:09:08.817Z,55.43
2023-05-19T09:11:37.827Z,55.07
2023-05-19T09:14:05.440Z,55.04
2023-05-19T09:16:34.067Z,56.31
2023-05-19T09:19:01.785Z,56.29
2023-05-19T09:21:32.827Z,55.13
2023-05-19T09:24:06.841Z,57.04
2023-05-19T09:26:40.488Z,57.18
2023-05-19T09:29:14.630Z,56.92
2023-05-19T09:31:52.031Z,56.93
2023-05-19T09:34:19.985Z,56.04
2023-05-19T09:36:49.670Z,57.84
2023-05-19T09:39:17.961Z,56.23
2023-05-19T09:41:45.314Z,57.21
2023-05-19T09:44:23.315Z,57.06
2023-05-19T09:46:51.474Z,58.05
2023-05-19T09:49:21.260Z,58.29
2023-05-19T09:51:53.783Z,57.93
2023-05-19T09:54:23.170Z,56.78
2023-05-19T09:57:00.269Z,55.00
2023-05-19T09:59:29.929Z,55.48
2023-05-19T10:02:01.442Z,55.97
2023-05-19T10:04:29.902Z,54.63
2023-05-19T10:06:59.921Z,55.24
2023-05-19T10:09:28.169Z,54.97
2023-05-19T10:11:58.894Z,55.21
2023-05-19T10:14:27.156Z,54.32
2023-05-19T10:16:58.682Z,57.72
2023-05-19T10:19:27.251Z,55.22
2023-05-19T10:21:55.009Z,55.42
2023-05-19T10:24:22.539Z,52.23
2023-05-19T10:27:03.573Z,52.68
2023-05-19T10:29:33.391Z,55.98
2023-05-19T10:32:06.884Z,53.91
2023-05-19T10:34:57.431Z,55.45
2023-05-19T10:37:36.911Z,53.31
2023-05-19T10:40:10.189Z,55.26
2023-05-19T10:42:58.007Z,57.82
2023-05-19T10:45:27.825Z,57.40
2023-05-19T10:47:55.465Z,59.20
2023-05-19T10:50:23.268Z,60.38
2023-05-19T10:52:56.785Z,59.28
2023-05-19T10:55:44.884Z,58.00
2023-05-19T10:58:12.185Z,57.85
2023-05-19T11:00:39.866Z,62.93
2023-05-19T11:03:16.746Z,66.11
2023-05-19T11:05:46.477Z,69.31
2023-05-19T11:08:13.811Z,69.08
2023-05-19T11:10:43.786Z,72.28
2023-05-19T11:13:18.801Z,69.54
2023-05-19T11:15:46.669Z,67.27
2023-05-19T11:18:16.195Z,68.52
2023-05-19T11:20:44.676Z,65.34
2023-05-19T11:23:18.056Z,64.56
2023-05-19T11:25:49.306Z,63.19
2023-05-19T11:28:20.668Z,61.87
2023-05-19T11:30:50.797Z,65.26
2023-05-19T11:33:19.660Z,67.24
2023-05-19T11:35:49.365Z,67.29
2023-05-19T11:38:20.044Z,64.40
2023-05-19T11:40:49.765Z,66.07
2023-05-19T11:43:17.072Z,68.54
2023-05-19T11:45:45.048Z,69.41
2023-05-19T11:48:13.075Z,67.71
2023-05-19T11:50:42.373Z,66.57
2023-05-19T11:53:12.383Z,68.08
2023-05-19T11:56:04.613Z,68.63
2023-05-19T11:58:32.082Z,66.79
2023-05-19T12:01:03.766Z,67.22
2023-05-19T12:03:37.237Z,65.37
2023-05-19T12:06:26.188Z,65.57
2023-05-19T12:08:56.509Z,62.90
2023-05-19T12:11:24.997Z,63.76
2023-05-19T12:13:55.430Z,63.73
2023-05-19T12:16:23.174Z,62.63
2023-05-19T12:18:50.841Z,65.20
2023-05-19T12:21:18.313Z,64.01
2023-05-19T12:23:45.754Z,65.22
2023-05-19T12:26:13.286Z,64.27
2023-05-19T12:28:44.110Z,62.71
2023-05-19T12:31:15.252Z,62.08
2023-05-19T12:33:46.914Z,62.56
2023-05-19T12:36:15.901Z,65.17
2023-05-19T12:38:43.657Z,64.45
2023-05-19T12:41:13.900Z,64.31
2023-05-19T12:43:41.385Z,64.13
2023-05-19T12:46:12.323Z,64.13
2023-05-19T12:48:40.641Z,65.66
2023-05-19T12:51:08.122Z,68.06
2023-05-19T12:53:35.482Z,69.55
2023-05-19T12:56:10.655Z,69.17
2023-05-19T12:58:39.068Z,72.51
2023-05-19T13:01:07.786Z,72.93
2023-05-19T13:04:02.778Z,71.93
2023-05-19T13:06:33.841Z,76.42
2023-05-19T13:09:01.207Z,77.11
2023-05-19T13:11:29.284Z,78.74
2023-05-19T13:13:57.894Z,78.59
2023-05-19T13:16:29.596Z,78.94
2023-05-19T13:18:57.630Z,79.02
2023-05-19T13:21:25.158Z,80.04
2023-05-19T13:23:53.459Z,81.45
2023-05-19T13:26:21.762Z,82.18
2023-05-19T13:28:49.264Z,81.07
2023-05-19T13:31:51.882Z,81.95
2023-05-19T13:34:21.132Z,83.54
2023-05-19T13:36:49.127Z,82.20
2023-05-19T13:39:18.899Z,85.08
2023-05-19T13:41:46.907Z,86.76
2023-05-19T13:44:14.256Z,86.32
2023-05-19T13:46:45.535Z,89.47
2023-05-19T13:49:14.308Z,86.75
2023-05-19T13:51:42.800Z,88.03
2023-05-19T13:54:10.390Z,87.83
2023-05-19T13:56:39.322Z,91.98
2023-05-19T13:59:06.721Z,96.36
2023-05-19T14:01:40.162Z,94.85
2023-05-19T14:04:07.777Z,95.87
2023-05-19T14:06:35.345Z,92.35
2023-05-19T14:09:03.202Z,92.17
2023-05-19T14:11:30.773Z,88.52
2023-05-19T14:13:59.258Z,90.41
2023-05-19T14:16:28.927Z,88.65
2023-05-19T14:18:56.989Z,90.82
2023-05-19T14:21:24.599Z,90.72
2023-05-19T14:23:52.020Z,90.97
2023-05-19T14:26:19.995Z,90.15
2023-05-19T14:28:47.551Z,88.49
2023-05-19T14:31:15.344Z,90.91
2023-05-19T14:33:42.823Z,88.27
2023-05-19T14:36:10.628Z,91.29
2023-05-19T14:38:38.061Z,90.58
2023-05-19T14:41:07.669Z,93.82
2023-05-19T14:43:35.042Z,93.06
2023-05-19T14:46:02.527Z,91.58
2023-05-19T14:48:29.979Z,90.87
2023-05-19T14:50:57.385Z,90.25
2023-05-19T14:53:24.760Z,89.14
2023-05-19T14:55:52.177Z,90.08
2023-05-19T14:58:27.650Z,91.82
2023-05-19T15:00:59.583Z,93.33
2023-05-19T15:03:27.110Z,91.22
2023-05-19T15:05:54.586Z,94.36
2023-05-19T15:08:21.974Z,92.74
2023-05-19T15:10:49.920Z,93.34
2023-05-19T15:13:19.449Z,94.17
2023-05-19T15:15:46.738Z,92.08
2023-05-19T15:18:17.997Z,93.73
2023-05-19T15:20:46.633Z,96.27
2023-05-19T15:23:13.926Z,93.71
2023-05-19T15:25:41.325Z,91.11
2023-05-19T15:28:08.674Z,98.04
2023-05-19T15:30:36.169Z,94.95
2023-05-19T15:33:03.721Z,96.90
2023-05-19T15:35:32.086Z,97.21
2023-05-19T15:38:05.289Z,95.89
2023-05-19T15:40:33.304Z,95.32
2023-05-19T15:43:01.045Z,96.64
2023-05-19T15:45:28.475Z,94.90
2023-05-19T15:47:56.171Z,97.86
2023-05-19T15:50:23.616Z,98.77
2023-05-19T15:52:50.858Z,99.68
2023-05-19T15:55:18.196Z,97.88
2023-05-19T15:57:46.563Z,97.88
2023-05-19T16:00:14.160Z,95.69
2023-05-19T16:02:41.623Z,94.22
2023-05-19T16:05:09.041Z,94.68
2023-05-19T16:07:36.417Z,94.35
2023-05-19T16:10:03.836Z,93.40
2023-05-19T16:12:31.619Z,98.92
2023-05-19T16:14:58.996Z,96.84
2023-05-19T16:17:26.403Z,94.10
2023-05-19T16:19:53.813Z,95.66
2023-05-19T16:22:24.645Z,96.41
2023-05-19T16:25:10.787Z,97.58
2023-05-19T16:27:38.124Z,96.33
2023-05-19T16:30:05.775Z,93.41
2023-05-19T16:32:34.065Z,92.96
2023-05-19T16:35:01.652Z,92.59
2023-05-19T16:37:29.032Z,92.05
2023-05-19T16:39:56.535Z,90.79
2023-05-19T16:42:23.935Z,90.31
2023-05-19T16:44:51.280Z,91.09
2023-05-19T16:47:18.691Z,88.41
2023-05-19T16:49:46.093Z,87.96
2023-05-19T16:52:13.393Z,85.37
2023-05-19T16:54:42.652Z,87.55
2023-05-19T16:57:10.065Z,90.08
2023-05-19T16:59:37.287Z,88.10
2023-05-19T17:02:04.718Z,86.11
2023-05-19T17:04:32.131Z,86.45
2023-05-19T17:06:59.558Z,86.25
2023-05-19T17:09:26.863Z,86.57
2023-05-19T17:11:54.337Z,85.36
2023-05-19T17:14:21.670Z,85.39
2023-05-19T17:16:49.007Z,92.09
2023-05-19T17:19:16.964Z,92.84
2023-05-19T17:21:44.360Z,93.08
2023-05-19T17:24:11.871Z,94.45
2023-05-19T17:26:39.299Z,94.80
2023-05-19T17:29:06.564Z,94.32
2023-05-19T17:31:33.907Z,92.78
